Time;durP1;ratioP1;P1;durP2;ratioP2;P2;SDS_P1;SDS_P2;PMS_P1;PMS_P2;Temp;Humidity;BMP_temperature;BMP_pressure;BME280_temperature;BME280_humidity;BME280_pressure;Samples;Min_cycle;Max_cycle;Signal;HPM_P1;HPM_P2
2022/06/19 00:00:44;;;;;;;46.28;9.73;;;;;;;-144.47;44.25;53022.94;5018384;28;20045;-68
2022/06/19 00:03:20;;;;;;;112.00;48.15;;;;;;;-144.47;44.52;53036.84;5050998;22;20046;-68
2022/06/19 00:05:46;;;;;;;53.47;8.57;;;;;;;-144.47;44.62;52979.22;5067487;28;20512;-71
2022/06/19 00:08:11;;;;;;;35.50;7.70;;;;;;;-144.47;44.85;53011.00;5066561;28;20107;-69
2022/06/19 00:10:36;;;;;;;29.38;6.72;;;;;;;-144.47;45.35;53024.91;5064151;28;20020;-72
2022/06/19 00:13:02;;;;;;;37.08;8.05;;;;;;;-144.47;45.52;53015.00;5052790;28;20027;-70
2022/06/19 00:15:28;;;;;;;38.25;6.22;;;;;;;-144.47;45.74;53056.69;5046860;28;20078;-72
2022/06/19 00:17:54;;;;;;;27.50;6.95;;;;;;;-144.47;45.68;53026.91;5047927;28;20436;-73
2022/06/19 00:20:19;;;;;;;25.30;6.05;;;;;;;-144.47;46.08;53007.03;5047541;28;20087;-72
2022/06/19 00:22:46;;;;;;;36.67;7.72;;;;;;;-144.47;46.14;53032.88;5047310;28;20055;-70
2022/06/19 00:25:11;;;;;;;28.63;6.43;;;;;;;-144.47;46.55;53022.94;5044505;28;20037;-71
2022/06/19 00:27:40;;;;;;;38.13;6.68;;;;;;;-144.47;46.71;53009.03;5047322;28;20071;-72
2022/06/19 00:30:08;;;;;;;30.33;5.60;;;;;;;-144.47;47.00;53005.06;5046031;28;20033;-72
2022/06/19 00:32:34;;;;;;;29.90;6.95;;;;;;;-144.47;47.24;53048.75;5046715;28;20029;-72
2022/06/19 00:34:59;;;;;;;32.25;6.93;;;;;;;-144.47;47.41;53046.75;5048077;28;20104;-72
2022/06/19 00:37:25;;;;;;;37.90;7.55;;;;;;;-144.47;47.37;53018.97;5046900;28;20418;-70
2022/06/19 00:39:51;;;;;;;33.85;6.90;;;;;;;-144.47;47.34;53022.94;5046375;28;20021;-68
2022/06/19 00:42:16;;;;;;;36.03;7.28;;;;;;;-144.47;47.80;53042.78;5048291;28;20398;-71
2022/06/19 00:44:42;;;;;;;27.35;6.28;;;;;;;-144.47;47.74;53028.88;5050335;28;20025;-72
2022/06/19 00:47:20;;;;;;;42.00;7.50;;;;;;;-144.47;47.91;53007.03;5050103;28;20363;-69
2022/06/19 00:50:03;;;;;;;40.92;6.55;;;;;;;-144.47;48.13;53054.72;5050204;28;20021;-70
2022/06/19 00:52:38;;;;;;;37.50;5.70;;;;;;;-144.47;48.03;53054.72;5048617;28;20033;-69
2022/06/19 00:55:11;;;;;;;32.45;7.13;;;;;;;-144.47;48.22;53074.56;5050955;28;20112;-71
2022/06/19 00:57:42;;;;;;;40.83;6.18;;;;;;;-144.47;48.24;53034.84;5051213;28;20086;-69
2022/06/19 01:00:23;;;;;;;29.55;6.43;;;;;;;-144.47;48.19;53054.72;5049488;28;20586;-71
2022/06/19 01:02:49;;;;;;;28.55;5.25;;;;;;;-144.47;48.31;53038.81;5051738;28;20032;-73
2022/06/19 01:05:17;;;;;;;24.63;6.88;;;;;;;-144.47;48.37;53034.84;5051114;28;20029;-71
2022/06/19 01:07:44;;;;;;;35.83;5.72;;;;;;;-144.47;48.30;53040.81;5050356;28;20032;-72
2022/06/19 01:10:12;;;;;;;36.00;6.70;;;;;;;-144.47;48.14;53003.06;5046500;28;20552;-70
2022/06/19 01:12:40;;;;;;;38.55;5.72;;;;;;;-144.47;48.07;53022.94;5050526;28;20035;-72
2022/06/19 01:15:09;;;;;;;29.95;5.72;;;;;;;-144.47;48.09;53032.88;5049405;28;20393;-72
2022/06/19 01:17:35;;;;;;;36.60;6.63;;;;;;;-144.47;47.88;53050.75;5050720;28;20062;-70
2022/06/19 01:20:07;;;;;;;29.85;5.72;;;;;;;-144.47;47.85;53016.97;5049352;28;20623;-70
2022/06/19 01:23:08;;;;;;;36.00;5.53;;;;;;;-144.47;47.94;53030.88;5050235;28;20132;-75
2022/06/19 01:25:36;;;;;;;40.00;7.10;;;;;;;-144.47;47.69;53034.84;5042057;28;20141;-72
2022/06/19 01:31:06;;;;;;;31.83;4.95;;;;;;;-144.47;47.03;53064.66;5049517;28;20114;-71
2022/06/19 01:33:43;;;;;;;26.80;4.85;;;;;;;-144.47;46.99;53072.59;5050358;28;20112;-73
2022/06/19 01:36:12;;;;;;;33.28;5.03;;;;;;;-144.47;46.92;53058.69;5048610;28;20028;-73
2022/06/19 01:38:39;;;;;;;26.77;4.50;;;;;;;-144.47;46.39;53042.78;5049128;28;20548;-70
2022/06/19 01:41:11;;;;;;;23.20;4.88;;;;;;;-144.47;46.30;53036.84;5050148;28;20549;-73
2022/06/19 01:43:36;;;;;;;30.35;5.40;;;;;;;-144.47;45.88;53038.81;5049409;28;20592;-73
2022/06/19 01:46:04;;;;;;;26.25;5.35;;;;;;;-144.47;45.32;53046.75;5049712;28;20060;-74
2022/06/19 01:48:32;;;;;;;32.67;5.63;;;;;;;-144.47;45.14;53038.81;5044240;28;20108;-74
2022/06/19 01:51:00;;;;;;;47.42;8.57;;;;;;;-144.47;45.04;53048.75;5049128;28;20069;-74
2022/06/19 01:53:40;;;;;;;32.88;5.95;;;;;;;-144.47;44.56;53060.66;5048535;28;20108;-73
2022/06/19 01:56:09;;;;;;;30.50;6.75;;;;;;;-144.47;44.63;53046.75;5038146;28;20028;-71
2022/06/19 01:58:38;;;;;;;39.45;6.10;;;;;;;-144.47;44.83;53054.72;5048440;28;20104;-73
2022/06/19 02:01:07;;;;;;;29.10;5.30;;;;;;;-144.47;45.16;53028.88;5049940;28;20043;-71
2022/06/19 02:03:44;;;;;;;25.42;7.25;;;;;;;-144.47;45.42;53086.50;5049650;28;20040;-69
2022/06/19 02:06:12;;;;;;;30.95;5.38;;;;;;;-144.47;45.52;53016.97;5049648;28;20513;-70
2022/06/19 02:08:39;;;;;;;25.15;4.90;;;;;;;-144.47;45.46;53056.69;5048255;28;20057;-72
2022/06/19 02:11:06;;;;;;;30.92;4.28;;;;;;;-144.47;45.64;53078.53;5049675;28;20108;-72
2022/06/19 02:13:34;;;;;;;34.92;5.05;;;;;;;-144.47;45.50;53062.66;5048615;28;20055;-72
2022/06/19 02:16:03;;;;;;;29.70;6.15;;;;;;;-144.47;45.48;53032.88;5049373;28;20040;-72
2022/06/19 02:18:35;;;;;;;28.52;7.10;;;;;;;-144.47;45.51;53066.63;5049210;28;20099;-71
2022/06/19 02:21:00;;;;;;;33.22;5.35;;;;;;;-144.47;45.55;53046.75;5047856;28;20267;-69
2022/06/19 02:23:30;;;;;;;30.15;5.97;;;;;;;-144.47;45.58;53046.75;5048923;28;20025;-72
2022/06/19 02:25:57;;;;;;;36.53;7.65;;;;;;;-144.47;45.27;53042.78;5047130;28;20037;-71
2022/06/19 02:28:23;;;;;;;42.40;5.93;;;;;;;-144.47;45.50;53050.75;5048606;28;20029;-71
2022/06/19 02:30:48;;;;;;;31.27;5.47;;;;;;;-144.47;45.45;53022.94;5047146;28;20029;-72
2022/06/19 02:33:18;;;;;;;25.50;6.20;;;;;;;-144.47;45.38;53030.88;5049305;28;20028;-73
2022/06/19 02:35:44;;;;;;;16.25;4.78;;;;;;;-144.47;45.36;53056.69;5043868;28;20044;-72
2022/06/19 02:38:15;;;;;;;29.25;5.47;;;;;;;-144.47;45.25;53048.75;5048184;28;20055;-75
2022/06/19 02:40:59;;;;;;;27.35;7.25;;;;;;;-144.47;45.19;53046.75;5048648;28;20378;-70
2022/06/19 02:43:28;;;;;;;41.42;7.40;;;;;;;-144.47;45.21;53044.78;5047277;28;20502;-72
2022/06/19 02:45:54;;;;;;;28.35;5.68;;;;;;;-144.47;44.99;53040.81;5048664;28;20267;-71
2022/06/19 02:48:29;;;;;;;34.17;5.43;;;;;;;-144.47;45.10;53032.88;5048799;28;20571;-70
2022/06/19 02:50:58;;;;;;;46.45;6.00;;;;;;;-144.47;44.98;53066.63;5048438;28;20105;-73
2022/06/19 02:53:23;;;;;;;20.67;5.32;;;;;;;-144.47;44.90;53068.63;5047204;28;20548;-71
2022/06/19 02:55:49;;;;;;;28.58;5.28;;;;;;;-144.47;44.89;53018.97;5049054;28;20033;-72
2022/06/19 02:58:19;;;;;;;27.98;5.85;;;;;;;-144.47;44.78;53056.69;5047237;28;20133;-72
2022/06/19 03:00:46;;;;;;;20.70;5.22;;;;;;;-144.47;44.72;53074.56;5037197;28;20037;-74
2022/06/19 03:03:35;;;;;;;34.72;5.95;;;;;;;-144.47;44.76;53009.03;5048752;28;20043;-71
2022/06/19 03:06:00;;;;;;;21.77;4.40;;;;;;;-144.47;44.56;53056.69;5047476;28;20067;-72
2022/06/19 03:08:26;;;;;;;21.02;4.80;;;;;;;-144.47;44.65;53054.72;5047144;28;20087;-71
2022/06/19 03:10:51;;;;;;;29.17;4.88;;;;;;;-144.47;44.65;53030.88;5046532;28;20504;-72
2022/06/19 03:13:18;;;;;;;23.58;4.80;;;;;;;-144.47;44.56;53026.91;5047985;28;20041;-72
2022/06/19 03:15:44;;;;;;;19.70;4.88;;;;;;;-144.47;44.50;53066.63;5046810;28;20023;-71
2022/06/19 03:18:09;;;;;;;32.25;4.47;;;;;;;-144.47;44.61;53052.72;5048624;28;20133;-70
2022/06/19 03:20:35;;;;;;;29.90;5.40;;;;;;;-144.47;44.55;53066.63;5047673;28;20029;-74
2022/06/19 03:23:00;;;;;;;30.52;5.88;;;;;;;-144.47;44.67;53042.78;5047583;28;20413;-73
2022/06/19 03:25:25;;;;;;;29.98;5.10;;;;;;;-144.47;44.62;53050.75;5048347;28;20112;-70
2022/06/19 03:27:51;;;;;;;27.70;5.13;;;;;;;-144.47;44.66;53080.53;5047423;28;20021;-71
2022/06/19 03:30:19;;;;;;;25.77;6.53;;;;;;;-144.47;44.56;53054.72;5045966;28;20021;-73
2022/06/19 03:32:44;;;;;;;19.02;4.97;;;;;;;-144.47;44.70;53028.88;5047011;28;20471;-72
2022/06/19 03:35:11;;;;;;;32.72;5.50;;;;;;;-144.47;44.72;53050.75;5046574;28;20040;-68
2022/06/19 03:37:36;;;;;;;20.67;6.47;;;;;;;-144.47;44.76;53050.75;5048179;28;20040;-72
2022/06/19 03:40:02;;;;;;;36.40;6.57;;;;;;;-144.47;44.76;53054.72;5045688;28;20100;-75
2022/06/19 03:42:27;;;;;;;25.75;5.10;;;;;;;-144.47;44.54;53082.53;5047979;28;20075;-72
2022/06/19 03:44:53;;;;;;;20.45;4.20;;;;;;;-144.47;44.61;53064.66;5048013;28;20528;-67
2022/06/19 03:47:23;;;;;;;19.08;5.18;;;;;;;-144.47;44.46;53038.81;5043769;28;20025;-70
2022/06/19 03:49:49;;;;;;;22.92;5.15;;;;;;;-144.47;44.36;53062.66;5046494;28;20033;-76
2022/06/19 03:52:14;;;;;;;19.77;5.35;;;;;;;-144.47;44.27;53046.75;5047855;28;20109;-71
2022/06/19 03:54:40;;;;;;;23.95;4.88;;;;;;;-144.47;44.14;53042.78;5047334;28;20055;-69
2022/06/19 03:57:06;;;;;;;19.00;4.60;;;;;;;-144.47;44.26;53046.75;5047772;28;20025;-72
2022/06/19 03:59:31;;;;;;;27.52;5.13;;;;;;;-144.47;44.21;53066.63;5045660;28;20021;-68
2022/06/19 04:01:57;;;;;;;25.52;4.68;;;;;;;-144.47;44.29;53060.66;5048059;28;20070;-71
2022/06/19 04:04:22;;;;;;;22.30;4.72;;;;;;;-144.47;44.27;53044.78;5047383;28;20465;-69
2022/06/19 04:06:48;;;;;;;24.63;4.45;;;;;;;-144.47;44.21;53036.84;5048236;28;20039;-72
2022/06/19 04:09:16;;;;;;;30.45;4.97;;;;;;;-144.47;44.24;53034.84;5046467;28;20652;-68
2022/06/19 04:11:42;;;;;;;21.80;5.43;;;;;;;-144.47;44.01;53042.78;5047479;28;20021;-71
2022/06/19 04:14:11;;;;;;;24.95;5.75;;;;;;;-144.47;43.94;53032.88;5047587;28;20401;-72
2022/06/19 04:16:37;;;;;;;31.30;5.13;;;;;;;-144.47;43.96;53040.81;5047653;28;20430;-73
2022/06/19 04:19:05;;;;;;;23.13;4.82;;;;;;;-144.47;43.74;53011.00;5050427;28;20021;-73
2022/06/19 04:21:33;;;;;;;22.30;4.93;;;;;;;-144.47;43.69;53054.72;5050881;28;20108;-70
2022/06/19 04:24:03;;;;;;;15.27;4.23;;;;;;;-144.47;43.39;53026.91;5049912;28;20450;-72
2022/06/19 04:26:30;;;;;;;22.52;5.63;;;;;;;-144.47;43.40;53016.97;5048703;28;20071;-72
2022/06/19 04:28:57;;;;;;;23.35;5.63;;;;;;;-144.47;43.35;53048.75;5050515;28;20536;-71
2022/06/19 04:31:22;;;;;;;21.10;5.47;;;;;;;-144.47;43.14;53016.97;5049539;28;20506;-68
2022/06/19 04:33:47;;;;;;;21.08;5.40;;;;;;;-144.47;42.95;53046.75;5051177;28;20028;-74
2022/06/19 04:36:16;;;;;;;25.02;5.10;;;;;;;-144.47;43.09;53022.94;5051549;28;20401;-73
2022/06/19 04:38:43;;;;;;;28.80;4.82;;;;;;;-144.47;42.87;53016.97;5050421;28;20021;-78
2022/06/19 04:41:13;;;;;;;37.40;4.75;;;;;;;-144.47;42.84;53036.84;5050160;28;20516;-72
2022/06/19 04:43:39;;;;;;;21.02;4.60;;;;;;;-144.47;42.85;53038.81;5051081;28;20036;-71
2022/06/19 04:46:05;;;;;;;20.33;4.55;;;;;;;-144.47;42.96;53050.75;5051241;28;20035;-72
2022/06/19 04:48:32;;;;;;;17.48;4.70;;;;;;;-144.47;43.04;53013.00;5050255;28;20056;-69
2022/06/19 04:50:58;;;;;;;22.83;4.00;;;;;;;-144.47;42.88;53022.94;5051340;28;20056;-74
2022/06/19 04:53:24;;;;;;;25.23;5.13;;;;;;;-144.47;42.79;53042.78;5050890;28;20025;-74
2022/06/19 04:55:49;;;;;;;32.03;6.53;;;;;;;-144.47;42.81;53020.94;5050624;28;20040;-71
2022/06/19 04:58:14;;;;;;;31.50;4.88;;;;;;;-144.47;42.63;52999.09;5051810;28;20048;-71
2022/06/19 05:00:41;;;;;;;22.55;5.35;;;;;;;-144.47;42.62;53044.78;5048518;28;20056;-71
2022/06/19 05:03:06;;;;;;;20.45;4.80;;;;;;;-144.47;42.36;52999.09;5050381;28;20066;-71
2022/06/19 05:05:31;;;;;;;18.67;4.30;;;;;;;-144.47;42.48;53028.88;5050994;28;20029;-69
2022/06/19 05:07:57;;;;;;;20.48;4.00;;;;;;;-144.47;42.30;52989.16;5051280;28;20434;-73
2022/06/19 05:10:22;;;;;;;20.42;4.30;;;;;;;-144.47;42.08;53054.72;5048804;28;20078;-70
2022/06/19 05:12:48;;;;;;;15.90;4.35;;;;;;;-144.47;41.96;53016.97;5050366;28;20025;-72
2022/06/19 05:15:14;;;;;;;17.98;4.65;;;;;;;-144.47;41.55;53040.81;5049599;28;20033;-71
2022/06/19 05:17:40;;;;;;;22.88;4.28;;;;;;;-144.47;41.66;53022.94;5051139;28;20391;-69
2022/06/19 05:20:06;;;;;;;21.50;4.05;;;;;;;-144.47;41.48;53070.59;5050076;28;20108;-72
2022/06/19 05:22:33;;;;;;;13.35;4.18;;;;;;;-144.47;41.14;53007.03;5050365;28;20052;-71
2022/06/19 05:24:58;;;;;;;22.67;5.07;;;;;;;-144.47;41.43;52993.13;5049785;28;20347;-72
2022/06/19 05:27:24;;;;;;;24.05;4.68;;;;;;;-144.47;41.33;53007.03;5050542;28;20465;-70
2022/06/19 05:29:49;;;;;;;20.98;4.30;;;;;;;-144.47;41.50;53024.91;5048816;28;20037;-72
2022/06/19 05:32:15;;;;;;;15.35;4.40;;;;;;;-144.47;41.39;53013.00;5048245;28;20029;-70
2022/06/19 05:34:40;;;;;;;28.73;4.03;;;;;;;-144.47;41.55;53056.69;5050363;28;20048;-70
2022/06/19 05:37:05;;;;;;;11.07;3.83;;;;;;;-144.47;41.38;53015.00;5050835;28;20024;-69
2022/06/19 05:39:31;;;;;;;9.95;4.20;;;;;;;-144.47;41.35;53042.78;5048263;28;20494;-70
2022/06/19 05:41:57;;;;;;;25.42;4.05;;;;;;;-144.47;41.35;53038.81;5050014;28;20039;-70
2022/06/19 05:44:24;;;;;;;20.92;5.80;;;;;;;-144.47;41.33;52999.09;5049376;28;20036;-71
2022/06/19 05:46:50;;;;;;;13.55;4.35;;;;;;;-144.47;40.94;53046.75;5045022;28;20056;-68
2022/06/19 05:49:17;;;;;;;23.35;5.35;;;;;;;-144.47;40.88;53009.03;5047437;28;20032;-70
2022/06/19 05:51:42;;;;;;;22.65;4.38;;;;;;;-144.47;40.87;53046.75;5050492;28;20444;-71
2022/06/19 05:54:08;;;;;;;20.67;4.00;;;;;;;-144.47;40.73;53040.81;5049185;28;20025;-71
2022/06/19 05:56:34;;;;;;;13.40;4.07;;;;;;;-144.47;40.72;52995.13;5049285;28;20060;-70
2022/06/19 05:59:00;;;;;;;16.42;3.90;;;;;;;-144.47;40.69;53018.97;5048408;28;20119;-69
2022/06/19 06:01:28;;;;;;;22.08;4.20;;;;;;;-144.47;40.43;53011.00;5044901;28;20029;-72
2022/06/19 06:03:54;;;;;;;21.88;4.13;;;;;;;-144.47;40.30;53028.88;5062347;22;20041;-68
2022/06/19 06:06:25;;;;;;;19.17;4.60;;;;;;;-144.47;40.20;53003.06;5050288;28;20045;-63
2022/06/19 06:08:52;;;;;;;13.07;3.58;;;;;;;-144.47;40.11;53024.91;5049058;28;20470;-66
2022/06/19 06:11:18;;;;;;;18.27;4.00;;;;;;;-144.47;39.96;53028.88;5048383;28;20036;-68
2022/06/19 06:13:44;;;;;;;20.27;4.22;;;;;;;-144.47;39.89;53011.00;5050152;28;20079;-67
2022/06/19 06:16:11;;;;;;;11.40;3.97;;;;;;;-144.47;40.00;53015.00;5034056;28;20037;-65
2022/06/19 06:18:37;;;;;;;16.30;4.10;;;;;;;-144.47;39.81;53011.00;5019311;28;20112;-65
2022/06/19 06:21:05;;;;;;;21.95;3.83;;;;;;;-144.47;39.70;53030.88;5026842;28;20045;-65
2022/06/19 06:23:32;;;;;;;15.20;3.72;;;;;;;-144.47;39.63;53040.81;5031682;28;20464;-65
2022/06/19 06:26:08;;;;;;;18.10;3.58;;;;;;;-144.47;39.36;52991.16;5027556;28;20108;-65
2022/06/19 06:28:36;;;;;;;22.17;4.65;;;;;;;-144.47;39.16;53007.03;5024201;28;20509;-63
2022/06/19 06:31:04;;;;;;;30.05;4.90;;;;;;;-144.47;38.93;52959.38;5035711;28;20205;-64
2022/06/19 06:33:30;;;;;;;15.23;4.68;;;;;;;-144.47;38.66;53018.97;5046496;28;20021;-67
2022/06/19 06:35:56;;;;;;;19.42;3.72;;;;;;;-144.47;38.73;53005.06;5030310;28;20040;-66
2022/06/19 06:38:22;;;;;;;16.23;4.43;;;;;;;-144.47;38.52;53011.00;5030214;28;20025;-68
2022/06/19 06:40:48;;;;;;;16.42;4.00;;;;;;;-144.47;38.39;52979.22;5042029;28;20487;-69
2022/06/19 06:43:14;;;;;;;14.82;3.50;;;;;;;-144.47;38.28;52975.25;5038122;28;20036;-66
2022/06/19 06:45:39;;;;;;;14.88;3.50;;;;;;;-144.47;37.80;52983.22;5034383;28;20087;-67
2022/06/19 06:48:05;;;;;;;13.43;3.97;;;;;;;-144.47;37.17;52953.41;5025970;28;20423;-66
2022/06/19 06:50:31;;;;;;;16.50;3.67;;;;;;;-144.47;37.02;52991.16;5021142;28;20017;-67
2022/06/19 06:52:56;;;;;;;20.60;4.32;;;;;;;-144.47;36.83;52991.16;5028391;28;20029;-66
2022/06/19 06:55:22;;;;;;;16.23;3.88;;;;;;;-144.47;36.51;52985.19;5028351;28;20498;-66
2022/06/19 06:57:47;;;;;;;11.77;3.47;;;;;;;-144.47;36.31;52965.34;5035006;28;20059;-66
2022/06/19 07:00:17;;;;;;;13.15;4.15;;;;;;;-144.47;36.02;52975.25;5038656;28;20627;-67
2022/06/19 07:02:43;;;;;;;18.55;3.80;;;;;;;-144.47;35.70;52979.22;5028322;28;20025;-65
2022/06/19 07:05:08;;;;;;;16.55;4.30;;;;;;;-144.47;35.81;52947.47;5029281;28;20033;-68
2022/06/19 07:07:34;;;;;;;22.17;4.00;;;;;;;-144.47;35.65;52977.25;5028674;28;20132;-67
2022/06/19 07:09:59;;;;;;;18.00;6.05;;;;;;;-144.47;35.63;52963.34;5034976;28;20375;-66
2022/06/19 07:12:24;;;;;;;23.38;3.70;;;;;;;-144.47;34.67;52955.41;5019288;28;20033;-66
2022/06/19 07:14:50;;;;;;;23.77;3.53;;;;;;;-144.47;33.82;52947.47;5028453;28;20068;-67
2022/06/19 07:17:15;;;;;;;23.48;4.22;;;;;;;-144.47;33.54;52955.41;5037600;28;20494;-67
2022/06/19 07:19:40;;;;;;;21.25;3.67;;;;;;;-144.47;33.31;52949.44;5035769;28;20045;-68
2022/06/19 07:22:11;;;;;;;23.10;5.18;;;;;;;-144.47;33.08;52927.59;5029789;28;20032;-65
2022/06/19 07:24:36;;;;;;;31.27;4.05;;;;;;;-144.47;33.17;52983.22;5039668;28;20442;-68
2022/06/19 07:27:02;;;;;;;19.58;4.35;;;;;;;-144.47;33.24;52943.47;5029458;28;20021;-65
2022/06/19 07:29:27;;;;;;;21.17;3.78;;;;;;;-144.47;32.75;52955.41;5035982;28;20021;-65
2022/06/19 07:31:54;;;;;;;17.83;3.35;;;;;;;-144.47;32.87;52957.38;5033726;28;20057;-67
2022/06/19 07:34:19;;;;;;;20.88;3.80;;;;;;;-144.47;32.78;52961.34;5047379;28;20025;-67
2022/06/19 07:36:45;;;;;;;15.48;3.70;;;;;;;-144.47;32.54;52971.28;5034779;28;20108;-66
2022/06/19 07:39:11;;;;;;;28.58;3.97;;;;;;;-144.47;32.84;52935.53;5027615;28;20017;-64
2022/06/19 07:41:36;;;;;;;26.25;4.40;;;;;;;-144.47;32.87;52969.31;5027564;28;20124;-66
2022/06/19 07:44:02;;;;;;;17.60;4.00;;;;;;;-144.47;32.47;52927.59;5028411;28;20022;-68
2022/06/19 07:46:27;;;;;;;35.33;4.95;;;;;;;-144.47;32.10;52925.59;5028704;28;20025;-67
2022/06/19 07:51:37;;;;;;;25.63;4.32;;;;;;;-144.47;31.63;52951.44;5031053;28;20048;-69
2022/06/19 07:54:02;;;;;;;23.83;4.38;;;;;;;-144.47;31.33;52903.75;5023482;28;20567;-67
2022/06/19 07:56:28;;;;;;;18.38;3.60;;;;;;;-144.47;31.30;52919.66;5027743;28;20029;-68
2022/06/19 07:58:55;;;;;;;32.50;4.10;;;;;;;-144.47;30.82;52931.56;5027262;28;20095;-68
2022/06/19 08:01:20;;;;;;;36.13;5.28;;;;;;;-144.47;31.23;52921.63;5029167;28;20644;-66
2022/06/19 08:03:46;;;;;;;17.35;3.50;;;;;;;-144.47;30.86;52897.81;5028141;28;20032;-65
2022/06/19 08:06:14;;;;;;;25.58;4.32;;;;;;;-144.47;30.81;52921.63;5028516;28;20048;-67
2022/06/19 08:08:40;;;;;;;17.73;3.60;;;;;;;-144.47;30.84;52939.50;5030667;28;20109;-67
2022/06/19 08:11:06;;;;;;;38.63;4.80;;;;;;;-144.47;30.39;52905.75;5028015;28;20115;-67
2022/06/19 08:13:32;;;;;;;19.02;3.85;;;;;;;-144.47;30.13;52923.63;5030980;28;20053;-66
2022/06/19 08:16:02;;;;;;;35.15;3.97;;;;;;;-144.47;29.99;52903.75;5032062;28;20029;-67
2022/06/19 08:18:28;;;;;;;33.33;4.63;;;;;;;-144.47;29.72;52943.47;5027870;28;20026;-66
2022/06/19 08:20:53;;;;;;;23.88;4.25;;;;;;;-144.47;29.66;52871.97;5027697;28;20029;-66
2022/06/19 08:23:22;;;;;;;22.13;4.65;;;;;;;-144.47;29.64;52917.66;5026914;28;20059;-67
2022/06/19 08:25:48;;;;;;;25.52;4.68;;;;;;;-144.47;29.59;52871.97;5017315;28;20041;-67
2022/06/19 08:28:16;;;;;;;31.13;5.07;;;;;;;-144.47;29.21;52911.69;5020863;28;20040;-66
2022/06/19 08:30:43;;;;;;;47.15;5.20;;;;;;;-144.47;29.61;52927.59;5023196;28;20022;-66
2022/06/19 08:33:09;;;;;;;28.98;4.75;;;;;;;-144.47;29.36;52903.75;5018313;28;20038;-64
2022/06/19 08:35:41;;;;;;;42.25;5.25;;;;;;;-144.47;29.37;52915.69;5026154;28;20479;-66
2022/06/19 08:38:11;;;;;;;28.75;4.22;;;;;;;-144.47;29.10;52911.69;5040515;28;20032;-66
2022/06/19 08:40:58;;;;;;;29.30;3.90;;;;;;;-144.47;29.13;52893.81;5041279;28;20056;-65
2022/06/19 08:43:42;;;;;;;35.03;4.90;;;;;;;-144.47;28.65;52923.63;5027311;28;20021;-64
2022/06/19 08:46:38;;;;;;;58.42;5.65;;;;;;;-144.47;28.89;52895.81;5038421;28;20017;-68
2022/06/19 08:49:30;;;;;;;30.13;4.15;;;;;;;-144.47;28.74;52895.81;5022094;28;20079;-63
2022/06/19 08:52:04;;;;;;;32.75;4.28;;;;;;;-144.47;29.00;52889.84;5025192;28;20094;-67
2022/06/19 08:54:45;;;;;;;22.98;3.85;;;;;;;-144.47;28.78;52885.88;5034310;28;20367;-66
2022/06/19 08:57:18;;;;;;;22.38;3.95;;;;;;;-144.47;28.75;52854.09;5028467;28;20475;-67
2022/06/19 08:59:53;;;;;;;31.25;4.97;;;;;;;-144.47;28.47;52919.66;5026315;28;20036;-66
2022/06/19 09:02:40;;;;;;;30.08;5.07;;;;;;;-144.47;28.47;52891.84;5035694;28;20101;-66
2022/06/19 09:05:47;;;;;;;27.05;4.07;;;;;;;-144.47;28.40;52893.81;5029992;28;20129;-67
2022/06/19 09:08:49;;;;;;;17.55;3.70;;;;;;;-144.47;28.48;52873.97;5051778;28;20048;-63
2022/06/19 09:11:43;;;;;;;39.33;4.50;;;;;;;-144.47;28.19;52856.09;5029454;28;20060;-66
2022/06/19 09:14:15;;;;;;;20.80;4.20;;;;;;;-144.47;27.68;52911.69;5028992;28;20438;-67
2022/06/19 09:17:05;;;;;;;44.85;5.20;;;;;;;-144.47;27.30;52822.31;5035349;28;20028;-64
2022/06/19 09:19:49;;;;;;;33.10;6.05;;;;;;;-144.47;27.25;52871.97;5038678;28;20022;-67
2022/06/19 09:22:14;;;;;;;31.17;5.13;;;;;;;-144.47;27.26;52895.81;5023310;28;20033;-66
2022/06/19 09:25:01;;;;;;;44.45;7.22;;;;;;;-144.47;26.98;52873.97;5030295;28;20398;-65
2022/06/19 09:27:31;;;;;;;49.03;6.35;;;;;;;-144.47;26.91;52887.88;5031979;28;20051;-65
2022/06/19 09:30:14;;;;;;;39.33;5.22;;;;;;;-144.47;26.97;52854.09;5028520;28;20029;-66
2022/06/19 09:32:42;;;;;;;27.05;4.68;;;;;;;-144.47;26.76;52866.03;5050622;28;20038;-67
2022/06/19 09:35:15;;;;;;;37.97;4.45;;;;;;;-144.47;26.79;52844.19;5028488;28;20049;-66
2022/06/19 09:37:44;;;;;;;29.33;4.65;;;;;;;-144.47;26.38;52881.91;5042191;28;20032;-65
2022/06/19 09:40:18;;;;;;;37.90;5.22;;;;;;;-144.47;26.28;52834.25;5039613;28;20483;-66
2022/06/19 09:43:02;;;;;;;38.33;5.70;;;;;;;-144.47;26.10;52881.91;5031468;28;20029;-66
2022/06/19 09:45:32;;;;;;;34.15;4.88;;;;;;;-144.47;25.89;52838.22;5040786;28;20549;-63
2022/06/19 09:48:02;;;;;;;38.55;6.00;;;;;;;-144.47;26.01;52873.97;5028052;28;20105;-64
2022/06/19 09:50:38;;;;;;;36.72;5.57;;;;;;;-144.47;25.42;52846.16;5028913;28;20030;-67
2022/06/19 09:53:39;;;;;;;49.65;5.78;;;;;;;-144.47;24.45;52873.97;5027728;28;20029;-67
2022/06/19 09:56:26;;;;;;;48.50;7.28;;;;;;;-144.47;24.25;52840.19;5031796;28;20410;-65
2022/06/19 09:59:03;;;;;;;60.83;5.50;;;;;;;-144.47;24.25;52802.47;5040201;28;20017;-69
2022/06/19 10:01:29;;;;;;;45.05;6.50;;;;;;;-144.47;24.25;52852.13;5036848;28;20029;-65
2022/06/19 10:04:03;;;;;;;43.08;5.78;;;;;;;-144.47;24.32;52840.19;5030666;28;20029;-69
2022/06/19 10:06:43;;;;;;;57.00;6.03;;;;;;;-144.47;24.12;52862.06;5024957;28;20025;-67
2022/06/19 10:09:40;;;;;;;53.47;5.82;;;;;;;-144.47;24.09;52822.31;5024165;28;20032;-68
2022/06/19 10:12:17;;;;;;;44.00;6.15;;;;;;;-144.47;24.04;52868.00;5030316;28;20117;-65
2022/06/19 10:14:47;;;;;;;35.40;5.20;;;;;;;-144.47;24.05;52830.28;5029232;28;20413;-67
2022/06/19 10:17:25;;;;;;;59.72;5.57;;;;;;;-144.47;24.27;52862.06;5029828;28;20028;-67
2022/06/19 10:19:57;;;;;;;40.92;5.63;;;;;;;-144.47;24.37;52852.13;5042741;28;20040;-65
2022/06/19 10:22:41;;;;;;;31.20;5.35;;;;;;;-144.47;24.14;52816.38;5016841;28;20513;-69
2022/06/19 10:25:37;;;;;;;32.53;4.53;;;;;;;-144.47;24.18;52848.16;5023994;28;20029;-67
2022/06/19 10:28:22;;;;;;;39.47;5.17;;;;;;;-144.47;24.26;52824.31;5021674;28;20061;-67
2022/06/19 10:31:15;;;;;;;60.95;5.82;;;;;;;-144.47;24.22;52834.25;5029594;28;20045;-67
2022/06/19 10:34:05;;;;;;;49.17;5.93;;;;;;;-144.47;24.30;52812.41;5042711;28;20079;-66
2022/06/19 10:36:34;;;;;;;44.03;5.43;;;;;;;-144.47;24.13;52810.41;5027944;28;20028;-67
2022/06/19 10:39:19;;;;;;;44.53;5.25;;;;;;;-144.47;24.43;52816.38;5030274;28;20530;-65
2022/06/19 10:42:18;;;;;;;45.38;5.45;;;;;;;-144.47;24.50;52818.34;5029814;28;20029;-66
2022/06/19 10:44:46;;;;;;;27.05;4.72;;;;;;;-144.47;24.62;52824.31;4997419;28;20056;-66
2022/06/19 10:47:30;;;;;;;33.40;4.95;;;;;;;-144.47;24.45;52808.44;5032965;28;20021;-68
2022/06/19 10:49:55;;;;;;;37.08;4.90;;;;;;;-144.47;24.28;52816.38;5035261;28;20036;-67
2022/06/19 10:52:25;;;;;;;36.88;5.07;;;;;;;-144.47;24.17;52840.19;5042772;28;20026;-67
2022/06/19 10:55:19;;;;;;;22.13;5.55;;;;;;;-144.47;24.30;52824.31;5030487;28;20077;-68
2022/06/19 10:58:14;;;;;;;38.72;6.25;;;;;;;-144.47;24.32;52814.38;5037434;28;20078;-68
2022/06/19 11:00:39;;;;;;;42.22;5.53;;;;;;;-144.47;24.26;52842.19;5035046;28;20040;-67
2022/06/19 11:06:06;;;;;;;31.73;5.00;;;;;;;-144.47;24.30;52808.44;5022605;28;20094;-68
2022/06/19 11:08:35;;;;;;;46.05;5.95;;;;;;;-144.47;24.11;52800.47;5036838;28;20048;-67
2022/06/19 11:11:01;;;;;;;40.10;5.35;;;;;;;-144.47;24.32;52810.41;5045348;28;20055;-67
2022/06/19 11:13:56;;;;;;;47.50;5.88;;;;;;;-144.47;24.32;52844.19;5033118;28;20512;-67
2022/06/19 11:16:21;;;;;;;30.00;6.07;;;;;;;-144.47;24.17;52810.41;5022247;28;20041;-68
2022/06/19 11:18:49;;;;;;;23.90;5.20;;;;;;;-144.47;24.22;52808.44;5025941;28;20367;-64
2022/06/19 11:21:19;;;;;;;34.65;5.70;;;;;;;-144.47;24.44;52802.47;5041533;28;20025;-66
2022/06/19 11:23:47;;;;;;;25.15;4.90;;;;;;;-144.47;24.53;52796.50;5028072;28;20021;-64
2022/06/19 11:26:28;;;;;;;31.90;5.70;;;;;;;-144.47;24.36;52786.56;5036691;28;20052;-67
2022/06/19 11:29:16;;;;;;;28.25;5.55;;;;;;;-144.47;24.55;52830.28;5021986;28;20060;-66
2022/06/19 11:32:11;;;;;;;32.90;5.32;;;;;;;-144.47;24.52;52816.38;5029084;28;20036;-64